Flight Track Log - Related Links

Times and Time Zones

All times are in EDT time to prevent confusion due to time zone crossing. See the N84XP flight status page for this flight to view local times or setup timezone preferences in your user account.

Time Position Orientation Groundspeed Altitude Reporting Facility
EDT Latitude Longitude Course Direction KTS MPH feet Rate Location/Type
Sun 01:40:43 PM 44.9058 -85.1847 174° South 164 189 3,400  Level Chicago Center
Sun 01:41:45 PM 44.8600 -85.1781 174° South 164 189 4,900 1,392 Climbing Chicago Center
Sun 01:42:48 PM 44.8133 -85.1767 179° South 167 192 6,300 1,392 Climbing Minneapolis Center
Sun 01:43:50 PM 44.7633 -85.1719 176° South 172 198 7,800 1,597 Climbing Minneapolis Center
Sun 01:44:52 PM 44.6994 -85.1689 178° South 186 214 9,600 1,680 Climbing Minneapolis Center
Sun 01:45:55 PM 44.6469 -85.1697 181° South 189 217 11,300 1,536 Climbing Minneapolis Center
Sun 01:46:57 PM 44.5958 -85.1708 181° South 186 214 12,800 1,403 Climbing Minneapolis Center
Sun 01:47:59 PM 44.5439 -85.1728 182° South 186 214 14,200 1,403 Climbing Minneapolis Center
Sun 01:49:01 PM 44.4886 -85.1750 182° South 195 224 15,700 1,355 Climbing Minneapolis Center
Sun 01:50:03 PM 44.4311 -85.1756 180° South 204 235 17,000 1,500 Climbing Minneapolis Center
Sun 01:51:05 PM 44.3600 -85.1806 183° South 211 243 18,800 1,548 Climbing Minneapolis Center
Sun 01:52:07 PM 44.3036 -85.1847 183° South 204 235 20,200 1,210 Climbing Minneapolis Center
Sun 01:53:09 PM 44.2458 -85.1878 182° South 206 237 21,300 1,113 Climbing Minneapolis Center
Sun 01:54:11 PM 44.1881 -85.1897 181° South 207 238 22,500 1,113 Climbing Minneapolis Center
Sun 01:55:13 PM 44.1294 -85.1906 181° South 210 242 23,600 1,016 Climbing Minneapolis Center
Sun 01:56:15 PM 44.0711 -85.1917 181° South 210 242 24,600 960 Climbing Minneapolis Center
Sun 01:57:18 PM 44.0025 -85.1906 179° South 214 246 25,600 912 Climbing Minneapolis Center
Sun 01:58:20 PM 43.9431 -85.1906 180° South 215 247 26,500 677 Climbing Minneapolis Center
Sun 01:59:22 PM 43.8803 -85.1911 180° South 221 254 27,000 242 Climbing Minneapolis Center
Sun 02:00:24 PM 43.8117 -85.1817 174° South 240 276 27,000  Level Minneapolis Center
Sun 02:01:26 PM 43.7367 -85.1633 170° South 264 304 27,000  Level Minneapolis Center
Sun 02:02:28 PM 43.6444 -85.1628 180° South 276 318 27,000  Level Minneapolis Center
Sun 02:03:30 PM 43.5678 -85.1722 185° South 277 319 27,000  Level Minneapolis Center
Sun 02:04:32 PM 43.4911 -85.1792 184° South 276 318 27,000  Level Minneapolis Center
Sun 02:05:33 PM 43.4147 -85.1853 183° South 275 316 27,000  Level Chicago Center
Sun 02:06:36 PM 43.3375 -85.1911 183° South 278 320 27,000  Level Chicago Center
Sun 02:07:38 PM 43.2608 -85.1844 176° South 276 318 27,000  Level Chicago Center
Sun 02:08:40 PM 43.1694 -85.1878 182° South 275 316 27,000  Level Chicago Center
Sun 02:09:42 PM 43.0925 -85.1914 182° South 278 320 27,000  Level Chicago Center
Sun 02:10:44 PM 43.0153 -85.1806 174° South 279 321 27,000  Level Chicago Center
Sun 02:11:46 PM 42.9367 -85.1853 183° South 283 326 27,000  Level Chicago Center
Sun 02:12:48 PM 42.8567 -85.1908 183° South 289 333 27,000  Level Chicago Center
Sun 02:13:50 PM 42.7778 -85.1789 174° South 288 331 27,000  Level Chicago Center
Sun 02:14:52 PM 42.6981 -85.1844 183° South 287 330 27,000  Level Chicago Center
Sun 02:15:54 PM 42.6028 -85.1911 183° South 289 333 27,000  Level Chicago Center
Sun 02:16:56 PM 42.5253 -85.1764 172° South 284 327 27,000  Level Chicago Center
Sun 02:17:58 PM 42.4464 -85.1850 185° South 285 328 27,000  Level Chicago Center
Sun 02:19:01 PM 42.3661 -85.1975 187° South 288 331 27,000  Level Chicago Center
Sun 02:20:03 PM 42.2883 -85.2219 193° South 287 330 27,000  Level Chicago Center
Sun 02:21:05 PM 42.2097 -85.2494 195° South 289 333 27,000  Level Chicago Center
Sun 02:22:07 PM 42.1156 -85.2819 194° South 290 334 27,000  Level Chicago Center
Sun 02:23:09 PM 42.0386 -85.3100 195° South 288 331 27,000  Level Chicago Center
Sun 02:24:11 PM 41.9686 -85.3356 195° South 284 327 27,000  Level Chicago Center
Sun 02:25:13 PM 41.8919 -85.3633 195° South 285 328 27,000  Level Chicago Center
Sun 02:26:15 PM 41.8008 -85.3950 195° South 283 326 27,000  Level Chicago Center
Sun 02:27:17 PM 41.7222 -85.4053 186° South 283 326 27,000  Level Chicago Center
Sun 02:28:19 PM 41.6339 -85.4072 181° South 289 333 27,000  Level Chicago Center
Sun 02:29:21 PM 41.5561 -85.3911 171° South 285 328 27,000  Level Chicago Center
Sun 02:30:23 PM 41.4744 -85.3936 181° South 288 331 27,000  Level Chicago Center
Sun 02:31:25 PM 41.3953 -85.3992 183° South 286 329 27,000  Level Chicago Center
Sun 02:32:28 PM 41.3147 -85.3994 180° South 289 333 27,000  Level Chicago Center
Sun 02:33:30 PM 41.2361 -85.3947 177° South 285 328 27,000  Level Chicago Center
Sun 02:34:32 PM 41.1411 -85.3894 178° South 286 329 27,000  Level Chicago Center
Sun 02:35:34 PM 41.0617 -85.3839 177° South 286 329 27,000  Level Chicago Center
Sun 02:36:36 PM 40.9822 -85.3775 177° South 285 328 27,000  Level Chicago Center
Sun 02:37:38 PM 40.9025 -85.3722 177° South 286 329 27,000  Level Chicago Center
Sun 02:38:40 PM 40.8228 -85.3644 176° South 288 331 27,000  Level Chicago Center
Sun 02:39:42 PM 40.7417 -85.3578 176° South 291 335 27,000  Level Chicago Center
Sun 02:40:44 PM 40.6544 -85.3519 177° South 289 333 27,000  Level Chicago Center
Sun 02:41:46 PM 40.5733 -85.3439 176° South 291 335 27,000  Level Chicago Center
Sun 02:42:48 PM 40.4925 -85.3450 181° South 292 336 27,000  Level Chicago Center
Sun 02:43:50 PM 40.3953 -85.3483 181° South 292 336 27,000  Level Chicago Center
Sun 02:44:52 PM 40.3139 -85.3494 181° South 292 336 27,000  Level Chicago Center
Sun 02:45:54 PM 40.2339 -85.3503 180° South 289 333 27,000  Level Chicago Center
Sun 02:47:11 PM 40.1361 -85.3464 178° South 288 331 27,000  Level Indianapolis Center
Sun 02:48:14 PM 40.0369 -85.3425 178° South 296 341 27,000  Level Indianapolis Center
Sun 02:49:16 PM 39.9569 -85.3422 180° South 289 333 27,000  Level Indianapolis Center
Sun 02:50:18 PM 39.8753 -85.3339 176° South 292 336 27,000  Level Indianapolis Center
Sun 02:51:20 PM 39.7950 -85.3358 181° South 289 333 27,000  Level Indianapolis Center
Sun 02:52:22 PM 39.7144 -85.3333 179° South 289 333 27,000  Level Indianapolis Center
Sun 02:53:24 PM 39.6350 -85.3231 174° South 288 331 27,000 -48 Level Indianapolis Center
Sun 02:54:26 PM 39.5553 -85.3319 185° South 287 330 26,900  Descending Indianapolis Center
Sun 02:55:28 PM 39.4572 -85.3231 176° South 294 338 27,000 48 Climbing Indianapolis Center
Sun 02:56:30 PM 39.3781 -85.3133 175° South 290 334 27,000  Level Indianapolis Center
Sun 02:57:32 PM 39.2994 -85.3247 186° South 286 329 27,000  Level Indianapolis Center
Sun 02:58:34 PM 39.2200 -85.3178 176° South 288 331 27,000  Level Indianapolis Center
Sun 02:59:36 PM 39.1408 -85.3033 172° South 289 333 27,000  Level Indianapolis Center
Sun 03:00:38 PM 39.0611 -85.3114 184° South 286 329 27,000  Level Indianapolis Center
Sun 03:01:40 PM 38.9642 -85.3094 179° South 289 333 27,000  Level Indianapolis Center
Sun 03:02:42 PM 38.8825 -85.3042 177° South 294 338 27,000  Level Indianapolis Center
Sun 03:03:44 PM 38.8014 -85.2992 177° South 293 337 27,000  Level Indianapolis Center
Sun 03:04:46 PM 38.7194 -85.2908 175° South 294 338 27,000  Level Indianapolis Center
Sun 03:05:48 PM 38.6381 -85.2833 176° South 295 339 27,000  Level Indianapolis Center
Sun 03:06:50 PM 38.5419 -85.2789 178° South 292 336 27,000  Level Indianapolis Center
Sun 03:07:52 PM 38.4617 -85.2761 178° South 286 329 27,000  Level Indianapolis Center
Sun 03:08:54 PM 38.3828 -85.2761 180° South 285 328 27,000  Level Indianapolis Center
Sun 03:09:56 PM 38.3050 -85.2747 179° South 280 322 27,000  Level Indianapolis Center
Sun 03:10:58 PM 38.2283 -85.2736 179° South 275 316 27,000  Level Indianapolis Center
Sun 03:12:00 PM 38.1500 -85.2725 179° South 277 319 27,000  Level Indianapolis Center
Sun 03:13:02 PM 38.0714 -85.2686 178° South 281 323 27,000  Level Indianapolis Center
Sun 03:14:04 PM 37.9769 -85.2644 178° South 282 325 27,000  Level Indianapolis Center
Sun 03:15:06 PM 37.9019 -85.2581 176° South 275 316 27,000  Level Indianapolis Center
Sun 03:16:08 PM 37.8283 -85.2542 178° South 273 314 27,000  Level Indianapolis Center
Sun 03:17:10 PM 37.7508 -85.2519 179° South 276 318 27,000  Level Indianapolis Center
Sun 03:18:12 PM 37.6747 -85.2486 178° South 274 315 27,000  Level Indianapolis Center
Sun 03:19:14 PM 37.5867 -85.2447 178° South 271 312 27,000  Level Indianapolis Center
Sun 03:20:16 PM 37.5092 -85.2461 181° South 276 318 27,000  Level Indianapolis Center
Sun 03:21:18 PM 37.4361 -85.2431 178° South 266 306 27,000  Level Indianapolis Center
Sun 03:22:20 PM 37.3597 -85.2408 179° South 271 312 27,000  Level Indianapolis Center
Sun 03:23:22 PM 37.2842 -85.2386 179° South 272 313 27,000  Level Indianapolis Center
Sun 03:24:24 PM 37.1969 -85.2342 178° South 268 308 27,000  Level Indianapolis Center
Sun 03:25:26 PM 37.1211 -85.2311 178° South 270 311 27,000  Level Indianapolis Center
Sun 03:26:28 PM 37.0464 -85.2281 178° South 268 308 27,000  Level Indianapolis Center
Sun 03:27:30 PM 36.9675 -85.2239 178° South 273 314 27,000  Level Indianapolis Center
Sun 03:28:32 PM 36.8931 -85.2200 178° South 269 310 27,000  Level Indianapolis Center
Sun 03:29:34 PM 36.8172 -85.2164 178° South 270 311 27,000  Level Indianapolis Center
Sun 03:30:36 PM 36.7403 -85.2139 179° South 276 318 27,000  Level Indianapolis Center
Sun 03:31:38 PM 36.6644 -85.2128 179° South 274 315 27,000  Level Indianapolis Center
Sun 03:32:40 PM 36.5728 -85.2142 181° South 274 315 27,000  Level Indianapolis Center
Sun 03:33:41 PM 36.4964 -85.2172 182° South 274 315 27,000  Level Indianapolis Center
Sun 03:34:43 PM 36.4194 -85.2203 182° South 277 319 27,000  Level Indianapolis Center
Sun 03:35:45 PM 36.3433 -85.2186 179° South 275 316 27,000  Level Indianapolis Center
Sun 03:36:47 PM 36.2667 -85.2175 179° South 274 315 27,000  Level Indianapolis Center
Sun 03:37:49 PM 36.1903 -85.2175 180° South 274 315 27,000  Level Indianapolis Center
Sun 03:38:51 PM 36.0975 -85.2164 179° South 277 319 27,000  Level Indianapolis Center
Sun 03:39:21 PM 36.0672 -85.2178 182° South 273 314 27,000 -133 Level Atlanta Center
Sun 03:40:21 PM 35.9881 -85.2142 178° South 273 314 26,800 -450 Descending Atlanta Center
Sun 03:41:21 PM 35.9067 -85.2103 178° South 283 326 26,100 -650 Descending Atlanta Center
Sun 03:42:21 PM 35.8211 -85.2092 179° South 297 342 25,500 -750 Descending Atlanta Center
Sun 03:43:21 PM 35.7378 -85.2081 179° South 302 348 24,600 -750 Descending Atlanta Center
Sun 03:44:21 PM 35.6503 -85.2067 179° South 309 356 24,000 -550 Descending Atlanta Center
Sun 03:45:21 PM 35.5686 -85.2158 185° South 304 350 23,500 -1,100 Descending Atlanta Center
Sun 03:46:21 PM 35.4831 -85.2169 181° South 304 350 21,800 -1,250 Descending Atlanta Center
Sun 03:47:21 PM 35.3975 -85.2158 179° South 310 357 21,000 -400 Descending Atlanta Center
Sun 03:48:21 PM 35.3225 -85.2200 183° South 295 339 21,000  Level Atlanta Center
Sun 03:49:21 PM 35.2514 -85.2317 188° South 278 320 21,000  Level Atlanta Center
Sun 03:50:21 PM 35.1803 -85.2483 191° South 266 306 21,000  Level Atlanta Center
Sun 03:51:21 PM 35.1072 -85.2600 187° South 266 306 21,000  Level Atlanta Center
Sun 03:52:21 PM 35.0319 -85.2639 182° South 266 306 21,000 -150 Level Atlanta Center
Sun 03:53:21 PM 34.9569 -85.2478 170° South 271 312 20,700 -1,000 Descending Atlanta Center
Sun 03:54:21 PM 34.8739 -85.2261 168° South 286 329 19,000 -1,900 Descending Atlanta Center
Sun 03:55:21 PM 34.7947 -85.1922 161° South 298 343 16,900 -2,200 Descending Atlanta Center
Sun 03:56:21 PM 34.7158 -85.1633 163° South 298 343 14,600 -6,450 Descending Atlanta Center
Sun 03:57:21 PM 34.6386 -85.1447 169° South 292 336 4,000 -5,300 Descending Atlanta Center
Sun 03:58:21 PM 34.5636 -85.1386 176° South 286 329 4,000 1,700 Level Atlanta Center
Sun 03:59:21 PM 34.4906 -85.1478 186° South 286 329 7,400 500 Climbing Atlanta Center
Sun 04:00:21 PM 34.4194 -85.1544 184° South 271 312 5,000 -1,750 Descending Atlanta Center
Sun 04:01:21 PM 34.3547 -85.1661 188° South 255 293 3,900 -650 Descending Atlanta Center
Sun 04:02:21 PM 34.2983 -85.1578 173° South 221 254 3,700 -150 Descending Atlanta Center
Sun 04:03:21 PM 34.2461 -85.1772 197° South 199 229 3,600  Descending Atlanta Center
Sun 04:04:21 PM 34.1875 -85.1889 189° South 199 229 3,700 -50 Climbing Atlanta Center
Sun 04:05:21 PM 34.1353 -85.2008 191° South 199 229 3,500 -300 Descending Atlanta Center
Sun 04:06:21 PM 34.0936 -85.1903 168° South 167 192 3,100 -150 Descending Atlanta Center
Sun 04:07:21 PM 34.1356 -85.1681 24° Northeast 70 81 3,200  Climbing Atlanta Center
Sun 04:08:21 PM 34.1833 -85.1789 349° North 128 147 3,100 -100 Descending Atlanta Center
Sun 04:09:21 PM 34.2253 -85.1744 North 150 173 3,000 -100 Descending Atlanta Center

Login

Don't have an account? Register now (free) for customized features, flight alerts, and more!